Time;durP1;ratioP1;P1;durP2;ratioP2;P2;SDS_P1;SDS_P2;PMS_P1;PMS_P2;Temp;Humidity;BMP_temperature;BMP_pressure;BME280_temperature;BME280_humidity;BME280_pressure;Samples;Min_cycle;Max_cycle;Signal;HPM_P1;HPM_P2
2022/11/17 00:00:22;;;;;;;0.10;0.10;;;9.10;99.90;;;;;;4986361;28;20078;-86
2022/11/17 00:02:50;;;;;;;0.00;0.00;;;9.00;99.90;;;;;;4973188;28;20152;-84
2022/11/17 00:05:18;;;;;;;0.10;0.10;;;;;;;;;;4968829;28;20074;-85
2022/11/17 00:07:45;;;;;;;0.10;0.10;;;;;;;;;;4988627;28;20468;-85
2022/11/17 00:10:12;;;;;;;0.10;0.10;;;9.00;99.90;;;;;;4986006;28;20429;-86
2022/11/17 00:15:24;;;;;;;0.10;0.10;;;8.90;99.90;;;;;;4986424;28;20133;-84
2022/11/17 00:23:24;;;;;;;0.10;0.10;;;;;;;;;;4989920;28;20078;-85
2022/11/17 00:25:51;;;;;;;0.10;0.10;;;8.80;99.90;;;;;;4992486;28;20058;-84
2022/11/17 00:28:18;;;;;;;0.08;0.08;;;;;;;;;;4986362;28;20142;-87
2022/11/17 00:36:18;;;;;;;0.10;0.10;;;8.80;99.90;;;;;;4988017;28;20047;-88
2022/11/17 00:38:45;;;;;;;0.10;0.10;;;8.80;99.90;;;;;;4990429;28;20049;-84
2022/11/17 00:41:12;;;;;;;0.10;0.10;;;;;;;;;;4972715;28;20754;-84
2022/11/17 00:43:39;;;;;;;0.10;0.10;;;8.90;99.90;;;;;;4989978;28;20042;-86
2022/11/17 00:46:06;;;;;;;0.10;0.10;;;;;;;;;;4976152;28;20595;-84
2022/11/17 00:48:34;;;;;;;0.10;0.10;;;8.90;99.90;;;;;;4974381;28;20505;-88
2022/11/17 00:51:02;;;;;;;0.10;0.10;;;11.40;99.90;;;;;;4970012;28;20054;-87
2022/11/17 00:53:30;;;;;;;0.10;0.10;;;;;;;;;;4987262;28;20078;-85
2022/11/17 00:55:57;;;;;;;0.10;0.10;;;8.90;99.90;;;;;;4990406;28;20460;-84
2022/11/17 00:58:24;;;;;;;0.10;0.10;;;;;;;;;;4993767;28;20133;-85
2022/11/17 01:00:51;;;;;;;0.10;0.10;;;;;;;;;;4995396;28;20042;-84
2022/11/17 01:03:18;;;;;;;0.00;0.00;;;;;;;;;;4990254;28;20050;-85
2022/11/17 01:05:47;;;;;;;0.10;0.10;;;8.90;99.90;;;;;;4991650;28;20071;-86
2022/11/17 01:08:14;;;;;;;0.10;0.10;;;;;;;;;;4972888;28;20117;-85
2022/11/17 01:10:41;;;;;;;0.00;0.00;;;;;;;;;;5000130;28;20504;-85
2022/11/17 01:13:08;;;;;;;0.10;0.10;;;8.90;99.90;;;;;;4987082;28;20081;-88
2022/11/17 01:15:35;;;;;;;0.10;0.10;;;;;;;;;;4976952;28;20109;-85
2022/11/17 01:18:02;;;;;;;0.10;0.10;;;;;;;;;;4973941;28;20060;-84
2022/11/17 01:20:29;;;;;;;0.10;0.10;;;8.90;99.90;;;;;;4992221;28;20066;-85
2022/11/17 01:22:57;;;;;;;0.10;0.10;;;8.90;99.90;;;;;;4976694;28;21379;-89
2022/11/17 01:25:24;;;;;;;0.10;0.10;;;10.50;99.90;;;;;;4990952;28;20474;-84
2022/11/17 01:27:51;;;;;;;0.10;0.10;;;;;;;;;;4975598;28;20043;-86
2022/11/17 01:30:18;;;;;;;0.10;0.10;;;8.90;99.90;;;;;;4992318;28;20126;-86
2022/11/17 01:32:45;;;;;;;0.10;0.10;;;8.90;99.90;;;;;;4974808;28;20085;-86
2022/11/17 01:35:12;;;;;;;0.10;0.10;;;8.90;99.90;;;;;;4970603;28;20108;-84
2022/11/17 01:37:39;;;;;;;0.10;0.10;;;8.80;99.90;;;;;;4977617;28;20102;-84
2022/11/17 01:40:10;;;;;;;0.10;0.10;;;8.80;99.90;;;;;;4977035;28;20054;-85
2022/11/17 01:42:38;;;;;;;0.10;0.10;;;;;;;;;;4973723;28;20484;-83
2022/11/17 01:45:17;;;;;;;0.00;0.00;;;8.70;99.90;;;;;;4987280;28;20050;-86
2022/11/17 01:47:49;;;;;;;0.10;0.10;;;10.70;99.90;;;;;;4973582;28;20085;-87
2022/11/17 01:50:25;;;;;;;0.10;0.10;;;8.80;99.90;;;;;;4993675;28;20053;-84
2022/11/17 01:52:55;;;;;;;0.10;0.10;;;8.70;99.90;;;;;;4993060;28;20056;-84
2022/11/17 01:55:25;;;;;;;0.08;0.08;;;8.70;99.90;;;;;;4973406;28;20495;-83
2022/11/17 01:57:56;;;;;;;0.10;0.10;;;8.70;99.90;;;;;;4974541;28;20456;-85
2022/11/17 02:00:23;;;;;;;0.10;0.10;;;;;;;;;;4980258;28;21745;-86
2022/11/17 02:02:51;;;;;;;0.10;0.10;;;8.80;99.90;;;;;;4991191;28;20496;-84
2022/11/17 02:05:35;;;;;;;0.10;0.10;;;8.80;99.90;;;;;;4990497;28;20085;-84
2022/11/17 02:08:05;;;;;;;0.10;0.10;;;8.70;99.90;;;;;;4989696;28;20709;-84
2022/11/17 02:10:34;;;;;;;0.10;0.10;;;8.60;99.90;;;;;;4992797;28;20073;-83
2022/11/17 02:13:02;;;;;;;0.10;0.10;;;11.30;99.90;;;;;;4990177;28;20470;-85
2022/11/17 02:15:29;;;;;;;0.10;0.10;;;;;;;;;;4971070;28;20115;-87
2022/11/17 02:17:58;;;;;;;0.10;0.10;;;8.50;99.90;;;;;;4970061;28;20088;-83
2022/11/17 02:20:39;;;;;;;0.10;0.10;;;8.70;99.90;;;;;;4979259;28;20142;-84
2022/11/17 02:23:41;;;;;;;0.00;0.00;;;9.20;99.90;;;;;;5047015;23;20148;-84
2022/11/17 02:26:37;;;;;;;0.10;0.10;;;8.70;99.90;;;;;;5017900;28;20531;-84
2022/11/17 02:29:18;;;;;;;0.10;0.10;;;8.60;99.90;;;;;;5011180;28;20132;-83
2022/11/17 02:31:53;;;;;;;0.10;0.10;;;8.60;99.90;;;;;;5028841;28;20135;-83
2022/11/17 02:34:30;;;;;;;0.10;0.10;;;8.60;99.90;;;;;;5006369;28;20124;-86
2022/11/17 02:37:02;;;;;;;0.10;0.10;;;8.60;99.90;;;;;;5023775;28;20485;-84
2022/11/17 02:39:34;;;;;;;0.10;0.10;;;8.60;99.90;;;;;;5021277;28;20118;-84
2022/11/17 02:42:08;;;;;;;0.10;0.10;;;8.60;99.90;;;;;;5028990;28;20029;-85
2022/11/17 02:44:41;;;;;;;0.10;0.10;;;8.60;99.90;;;;;;5028062;28;20041;-86
2022/11/17 02:47:13;;;;;;;0.10;0.10;;;8.60;99.90;;;;;;5030535;28;20125;-85
2022/11/17 02:49:46;;;;;;;0.10;0.10;;;8.60;99.90;;;;;;5023627;28;20459;-86
2022/11/17 02:52:15;;;;;;;0.10;0.10;;;8.60;99.90;;;;;;5032795;28;20041;-85
2022/11/17 02:54:42;;;;;;;0.10;0.10;;;;;;;;;;5010014;28;20045;-85
2022/11/17 02:57:27;;;;;;;0.10;0.10;;;8.60;99.90;;;;;;5027342;28;20410;-86
2022/11/17 02:59:56;;;;;;;0.10;0.10;;;8.60;99.90;;;;;;5027619;28;20041;-86
2022/11/17 03:02:48;;;;;;;0.10;0.10;;;8.60;99.90;;;;;;5026636;28;20505;-86
2022/11/17 03:05:22;;;;;;;0.10;0.10;;;8.50;99.90;;;;;;5022438;28;20097;-85
2022/11/17 03:08:00;;;;;;;0.10;0.10;;;8.50;99.90;;;;;;5006703;28;20125;-86
2022/11/17 03:10:39;;;;;;;0.10;0.10;;;8.50;99.90;;;;;;5013427;28;20057;-84
2022/11/17 03:13:11;;;;;;;0.10;0.10;;;10.40;99.90;;;;;;5010803;28;20176;-84
2022/11/17 03:15:48;;;;;;;0.10;0.10;;;10.00;99.90;;;;;;5026154;28;20456;-83
2022/11/17 03:18:19;;;;;;;0.10;0.10;;;8.40;99.90;;;;;;5024556;28;20140;-85
2022/11/17 03:20:55;;;;;;;0.10;0.10;;;8.40;99.90;;;;;;5026011;28;20041;-84
2022/11/17 03:23:27;;;;;;;0.10;0.10;;;8.40;99.90;;;;;;5027424;28;20128;-85
2022/11/17 03:25:57;;;;;;;0.10;0.10;;;8.30;99.90;;;;;;5007954;28;20692;-85
2022/11/17 03:28:28;;;;;;;0.10;0.10;;;8.40;99.90;;;;;;5021025;28;20057;-85
2022/11/17 03:30:58;;;;;;;0.10;0.10;;;8.40;99.90;;;;;;5007977;28;20052;-85
2022/11/17 03:33:27;;;;;;;0.00;0.00;;;8.60;99.90;;;;;;5025114;28;20056;-85
2022/11/17 03:36:01;;;;;;;0.10;0.10;;;8.30;99.90;;;;;;5029495;28;20077;-83
2022/11/17 03:38:34;;;;;;;0.10;0.10;;;8.40;99.90;;;;;;5021525;28;20077;-85
2022/11/17 03:41:03;;;;;;;0.10;0.10;;;8.40;99.90;;;;;;5007478;28;20057;-85
2022/11/17 03:43:33;;;;;;;0.10;0.10;;;8.40;99.90;;;;;;5013413;28;20136;-86
2022/11/17 03:46:08;;;;;;;0.10;0.10;;;8.90;99.90;;;;;;5011229;28;20045;-84
2022/11/17 03:48:39;;;;;;;0.10;0.10;;;8.20;99.90;;;;;;5028699;28;20461;-86
2022/11/17 03:51:13;;;;;;;0.10;0.10;;;10.70;99.90;;;;;;5006179;28;20122;-86
2022/11/17 03:53:41;;;;;;;0.10;0.10;;;8.30;99.90;;;;;;5024294;28;20037;-87
2022/11/17 03:56:21;;;;;;;0.10;0.10;;;8.30;99.90;;;;;;5033157;28;20503;-86
2022/11/17 03:58:54;;;;;;;0.10;0.10;;;8.30;99.90;;;;;;5014358;28;20550;-85
2022/11/17 04:01:24;;;;;;;0.10;0.10;;;8.40;99.90;;;;;;5006667;28;20156;-85
2022/11/17 04:03:52;;;;;;;0.10;0.10;;;8.40;99.90;;;;;;5023966;28;20042;-83
2022/11/17 04:06:19;;;;;;;0.10;0.10;;;;;;;;;;5029240;28;20049;-85
2022/11/17 04:08:46;;;;;;;0.10;0.10;;;;;;;;;;5011776;28;20081;-85
2022/11/17 04:16:46;;;;;;;0.10;0.10;;;8.40;99.90;;;;;;5021834;28;20137;-87
2022/11/17 04:19:12;;;;;;;0.10;0.10;;;8.50;99.90;;;;;;5002515;28;20057;-85
2022/11/17 04:21:39;;;;;;;0.10;0.10;;;8.50;99.90;;;;;;5027563;28;20044;-85
2022/11/17 04:24:07;;;;;;;0.10;0.10;;;8.50;99.90;;;;;;5015019;28;20050;-85
2022/11/17 04:29:19;;;;;;;0.10;0.10;;;8.40;99.90;;;;;;5025665;28;20041;-85
2022/11/17 04:31:47;;;;;;;0.10;0.10;;;8.40;99.90;;;;;;5031373;28;20112;-84
2022/11/17 04:34:14;;;;;;;0.10;0.10;;;8.30;99.90;;;;;;5011960;28;20140;-85
2022/11/17 04:36:44;;;;;;;0.10;0.10;;;8.20;99.90;;;;;;5028286;28;20561;-86
2022/11/17 04:39:12;;;;;;;0.10;0.10;;;8.10;99.90;;;;;;5027189;28;20130;-86
2022/11/17 04:41:52;;;;;;;0.10;0.10;;;;;;;;;;5009796;28;20132;-84
2022/11/17 04:44:24;;;;;;;0.10;0.10;;;8.10;99.90;;;;;;5014006;28;20057;-84
2022/11/17 04:46:54;;;;;;;0.10;0.10;;;8.10;99.90;;;;;;5013020;28;20380;-84
2022/11/17 04:49:22;;;;;;;0.10;0.10;;;10.90;99.90;;;;;;5011041;28;20116;-83
2022/11/17 04:51:50;;;;;;;0.10;0.10;;;8.20;99.90;;;;;;5022076;28;20045;-82
2022/11/17 04:54:19;;;;;;;0.10;0.10;;;8.00;99.90;;;;;;5013123;28;20045;-85
2022/11/17 04:56:47;;;;;;;0.10;0.10;;;8.00;99.90;;;;;;5015261;28;20483;-83
2022/11/17 04:59:14;;;;;;;0.10;0.10;;;;;;;;;;5023807;28;20499;-85
2022/11/17 05:01:41;;;;;;;0.10;0.10;;;;;;;;;;4993576;28;20042;-82
2022/11/17 05:04:11;;;;;;;0.10;0.10;;;8.10;99.90;;;;;;5029968;28;20507;-84
2022/11/17 05:06:40;;;;;;;0.10;0.10;;;8.10;99.90;;;;;;5019147;28;20132;-85
2022/11/17 05:09:09;;;;;;;0.10;0.10;;;8.10;99.90;;;;;;5028377;28;20053;-86
2022/11/17 05:14:23;;;;;;;0.10;0.10;;;8.10;99.90;;;;;;5025981;28;20519;-83
2022/11/17 05:17:07;;;;;;;0.10;0.10;;;8.10;99.90;;;;;;5024929;28;20132;-85
2022/11/17 05:19:40;;;;;;;0.10;0.10;;;8.10;99.90;;;;;;5003691;28;20046;-85
2022/11/17 05:24:54;;;;;;;0.10;0.10;;;8.10;99.90;;;;;;5008540;28;20081;-85
2022/11/17 05:27:22;;;;;;;0.10;0.10;;;8.00;99.90;;;;;;5014087;28;20491;-83
2022/11/17 05:29:49;;;;;;;0.10;0.10;;;8.10;99.90;;;;;;5032457;28;20526;-83
2022/11/17 05:32:16;;;;;;;0.10;0.10;;;;;;;;;;5011874;28;20047;-84
2022/11/17 05:34:44;;;;;;;0.10;0.10;;;8.00;99.90;;;;;;5030534;28;20053;-86
2022/11/17 05:37:11;;;;;;;0.10;0.10;;;;;;;;;;5025830;28;20053;-85
2022/11/17 05:39:39;;;;;;;0.10;0.10;;;;;;;;;;5018436;28;20085;-86
2022/11/17 05:42:06;;;;;;;0.10;0.10;;;;;;;;;;5029589;28;20103;-85
2022/11/17 05:44:33;;;;;;;0.10;0.10;;;;;;;;;;5015582;28;20583;-84
2022/11/17 05:47:01;;;;;;;0.00;0.00;;;;;;;;;;5014050;28;20041;-84
2022/11/17 05:49:28;;;;;;;0.10;0.10;;;;;;;;;;5013756;28;20073;-86
2022/11/17 05:51:56;;;;;;;0.10;0.10;;;7.80;99.90;;;;;;5015607;28;20050;-85
2022/11/17 05:54:23;;;;;;;0.10;0.10;;;7.80;99.90;;;;;;5011259;28;20107;-85
2022/11/17 05:56:53;;;;;;;0.10;0.10;;;7.80;99.90;;;;;;5010136;28;20133;-83
2022/11/17 05:59:25;;;;;;;0.10;0.10;;;7.80;99.90;;;;;;5013103;28;20156;-85
2022/11/17 06:01:59;;;;;;;0.10;0.10;;;7.80;99.90;;;;;;5026775;28;21908;-85
2022/11/17 06:04:26;;;;;;;0.10;0.10;;;;;;;;;;5035374;28;20534;-83
2022/11/17 06:06:57;;;;;;;0.10;0.10;;;7.70;99.90;;;;;;5013916;28;20052;-85
2022/11/17 06:09:30;;;;;;;0.10;0.10;;;7.70;99.90;;;;;;5014069;28;20049;-85
2022/11/17 06:11:57;;;;;;;0.10;0.10;;;;;;;;;;5029824;28;20049;-83
2022/11/17 06:14:31;;;;;;;0.10;0.10;;;7.70;99.90;;;;;;5031997;28;20108;-85
2022/11/17 06:17:02;;;;;;;0.10;0.10;;;7.70;99.90;;;;;;5014761;28;20133;-85
2022/11/17 06:19:35;;;;;;;0.10;0.10;;;7.70;99.90;;;;;;5028250;28;20486;-85
2022/11/17 06:22:02;;;;;;;0.10;0.10;;;7.70;99.90;;;;;;5022159;28;20128;-86
2022/11/17 06:24:41;;;;;;;0.10;0.10;;;7.60;99.90;;;;;;5031604;28;20044;-85
2022/11/17 06:27:09;;;;;;;0.10;0.10;;;7.60;99.90;;;;;;5014345;28;20136;-86
2022/11/17 06:29:36;;;;;;;0.10;0.10;;;;;;;;;;5014621;28;20570;-85
2022/11/17 06:32:12;;;;;;;0.10;0.10;;;7.70;99.90;;;;;;5011955;28;20495;-85
2022/11/17 06:34:39;;;;;;;0.10;0.10;;;;;;;;;;5018725;28;20499;-87
2022/11/17 06:37:06;;;;;;;0.10;0.10;;;7.60;99.90;;;;;;5008314;28;21053;-86
2022/11/17 06:39:32;;;;;;;0.10;0.10;;;7.60;99.90;;;;;;5010887;28;20045;-84
2022/11/17 06:42:01;;;;;;;0.10;0.10;;;7.60;99.90;;;;;;5010794;28;20128;-85
2022/11/17 06:44:28;;;;;;;0.10;0.10;;;;;;;;;;5014431;28;20080;-84
2022/11/17 06:46:55;;;;;;;0.10;0.10;;;;;;;;;;5012371;28;20052;-85
2022/11/17 06:49:22;;;;;;;0.10;0.10;;;;;;;;;;5009099;28;20049;-85
2022/11/17 06:51:49;;;;;;;0.10;0.10;;;;;;;;;;5030153;28;20128;-86
2022/11/17 06:54:16;;;;;;;0.10;0.10;;;7.60;99.90;;;;;;5014032;28;20049;-85
2022/11/17 06:56:43;;;;;;;0.10;0.10;;;7.60;99.90;;;;;;5025963;28;20087;-86
2022/11/17 06:59:14;;;;;;;0.10;0.10;;;7.50;99.90;;;;;;5015947;28;20045;-85
2022/11/17 07:01:42;;;;;;;0.10;0.10;;;7.40;99.90;;;;;;5013491;28;20103;-85
2022/11/17 07:04:09;;;;;;;0.10;0.10;;;;;;;;;;5012841;28;20069;-84
2022/11/17 07:06:36;;;;;;;0.10;0.10;;;;;;;;;;5013093;28;20045;-86
2022/11/17 07:09:03;;;;;;;0.10;0.10;;;7.40;99.90;;;;;;5031144;28;20381;-84
2022/11/17 07:11:35;;;;;;;0.10;0.10;;;7.40;99.90;;;;;;5024369;28;20426;-85
2022/11/17 07:14:02;;;;;;;0.10;0.10;;;;;;;;;;5013283;28;20049;-86
2022/11/17 07:16:31;;;;;;;0.10;0.10;;;7.40;99.90;;;;;;5015966;28;20069;-85
2022/11/17 07:18:58;;;;;;;0.10;0.10;;;;;;;;;;5031903;28;20393;-86
2022/11/17 07:21:25;;;;;;;0.10;0.10;;;7.50;99.90;;;;;;5030231;28;20304;-86
2022/11/17 07:23:53;;;;;;;0.10;0.10;;;;;;;;;;5014454;28;20133;-86
2022/11/17 07:26:20;;;;;;;0.10;0.10;;;;;;;;;;5013286;28;20042;-87
2022/11/17 07:28:46;;;;;;;0.10;0.10;;;7.40;99.90;;;;;;5014658;28;20467;-84
2022/11/17 07:31:14;;;;;;;0.10;0.10;;;;;;;;;;5013007;28;20255;-85
2022/11/17 07:33:42;;;;;;;0.10;0.10;;;7.40;99.90;;;;;;5027609;28;20084;-84
2022/11/17 07:36:11;;;;;;;0.10;0.10;;;7.70;99.90;;;;;;5013024;28;20049;-85
2022/11/17 07:38:38;;;;;;;0.10;0.10;;;7.50;99.90;;;;;;5010696;28;20140;-84
2022/11/17 07:41:07;;;;;;;0.10;0.10;;;7.50;99.90;;;;;;5020017;28;20045;-84
2022/11/17 07:43:35;;;;;;;0.10;0.10;;;;;;;;;;5029274;28;20142;-83
2022/11/17 07:46:03;;;;;;;0.10;0.10;;;7.50;99.90;;;;;;5007600;28;20124;-85
2022/11/17 07:48:31;;;;;;;0.10;0.10;;;;;;;;;;5010276;28;20492;-83
2022/11/17 07:51:00;;;;;;;0.10;0.10;;;7.50;99.90;;;;;;5014907;28;20411;-83
2022/11/17 07:53:27;;;;;;;0.10;0.10;;;;;;;;;;5029275;28;20037;-86
2022/11/17 07:55:54;;;;;;;0.10;0.10;;;;;;;;;;5014613;28;20049;-84
2022/11/17 07:58:24;;;;;;;0.10;0.10;;;;;;;;;;5014447;28;20081;-84
2022/11/17 08:00:51;;;;;;;0.10;0.10;;;7.60;99.90;;;;;;5029561;28;20042;-83
2022/11/17 08:03:18;;;;;;;0.10;0.10;;;;;;;;;;5030955;28;20037;-84
2022/11/17 08:05:45;;;;;;;0.10;0.10;;;;;;;;;;5015550;28;20143;-84
2022/11/17 08:08:14;;;;;;;0.10;0.10;;;7.60;99.90;;;;;;5016592;28;20085;-85
2022/11/17 08:10:44;;;;;;;0.10;0.10;;;;;;;;;;5013804;28;20145;-85
2022/11/17 08:13:14;;;;;;;0.10;0.10;;;;;;;;;;5013533;28;20058;-83
2022/11/17 08:15:41;;;;;;;0.10;0.10;;;;;;;;;;5013178;28;20132;-86
2022/11/17 08:18:08;;;;;;;0.10;0.10;;;;;;;;;;5016287;28;20479;-86
2022/11/17 08:20:35;;;;;;;0.10;0.10;;;7.60;99.90;;;;;;5034055;28;20055;-83
2022/11/17 08:23:02;;;;;;;0.10;0.10;;;7.60;99.90;;;;;;5065017;23;20139;-86
2022/11/17 08:25:30;;;;;;;0.10;0.10;;;7.60;99.90;;;;;;5032525;28;20095;-87
2022/11/17 08:27:58;;;;;;;0.10;0.10;;;;;;;;;;5020082;28;20073;-87
2022/11/17 08:30:25;;;;;;;0.10;0.10;;;;;;;;;;5033590;28;20064;-87
2022/11/17 08:32:53;;;;;;;0.10;0.10;;;7.70;99.90;;;;;;5026148;28;20167;-85
2022/11/17 08:35:22;;;;;;;0.10;0.10;;;7.70;99.90;;;;;;5033166;28;20048;-86
2022/11/17 08:37:50;;;;;;;0.10;0.10;;;;;;;;;;5033494;28;20148;-85
2022/11/17 08:40:17;;;;;;;0.10;0.10;;;7.80;99.90;;;;;;5033269;28;20100;-84
2022/11/17 08:42:46;;;;;;;0.10;0.10;;;8.00;99.90;;;;;;5032307;28;20052;-85
2022/11/17 08:45:13;;;;;;;0.10;0.10;;;8.00;99.90;;;;;;5016838;28;20049;-84
2022/11/17 08:47:40;;;;;;;0.10;0.10;;;;;;;;;;5032629;28;20420;-85
2022/11/17 08:50:08;;;;;;;0.10;0.10;;;8.00;99.90;;;;;;5014831;28;20061;-83
2022/11/17 08:52:35;;;;;;;0.10;0.10;;;8.00;99.90;;;;;;5017549;28;20064;-84
2022/11/17 08:55:04;;;;;;;0.10;0.10;;;8.10;99.90;;;;;;5029856;28;20064;-86
2022/11/17 08:57:31;;;;;;;0.10;0.10;;;8.10;99.90;;;;;;5014622;28;20050;-86
2022/11/17 09:00:00;;;;;;;0.10;0.10;;;8.00;99.90;;;;;;5031974;28;20051;-85
2022/11/17 09:02:27;;;;;;;0.10;0.10;;;8.00;99.90;;;;;;5015409;28;20078;-87
2022/11/17 09:04:54;;;;;;;0.10;0.10;;;8.00;99.90;;;;;;5033144;28;20080;-85
2022/11/17 09:07:21;;;;;;;0.10;0.10;;;;;;;;;;5015650;28;20080;-85
2022/11/17 09:09:49;;;;;;;0.10;0.10;;;7.90;99.90;;;;;;5031476;28;20049;-85
2022/11/17 09:12:17;;;;;;;0.10;0.10;;;;;;;;;;5013818;28;20085;-87
2022/11/17 09:14:44;;;;;;;0.10;0.10;;;8.00;99.90;;;;;;5030614;28;20068;-84
2022/11/17 09:17:12;;;;;;;0.10;0.10;;;8.10;99.90;;;;;;5030855;28;20407;-84
2022/11/17 09:19:39;;;;;;;0.10;0.10;;;;;;;;;;5015797;28;20241;-86
2022/11/17 09:22:06;;;;;;;0.10;0.10;;;8.00;99.90;;;;;;5008833;28;20058;-87
2022/11/17 09:24:33;;;;;;;0.10;0.10;;;8.10;99.90;;;;;;4994723;28;20056;-85
2022/11/17 09:27:03;;;;;;;0.10;0.10;;;;;;;;;;5031846;28;20072;-85
2022/11/17 09:29:30;;;;;;;0.10;0.10;;;8.10;99.90;;;;;;5030924;28;20073;-85
2022/11/17 09:31:57;;;;;;;0.10;0.10;;;8.10;99.90;;;;;;5001758;28;20057;-86
2022/11/17 09:34:26;;;;;;;0.10;0.10;;;8.10;99.90;;;;;;5012476;28;20125;-85
2022/11/17 09:36:53;;;;;;;0.10;0.10;;;;;;;;;;5013296;28;20052;-85
2022/11/17 09:39:20;;;;;;;0.10;0.10;;;;;;;;;;5013737;28;20041;-85
2022/11/17 09:41:50;;;;;;;0.10;0.10;;;8.10;99.90;;;;;;5013987;28;20105;-86
2022/11/17 09:44:38;;;;;;;0.10;0.10;;;8.10;99.90;;;;;;5010038;28;20484;-86
2022/11/17 09:47:17;;;;;;;0.10;0.10;;;8.20;99.90;;;;;;5027900;28;20053;-85
2022/11/17 09:49:55;;;;;;;0.10;0.10;;;8.20;99.90;;;;;;5017967;28;20057;-86
2022/11/17 09:52:30;;;;;;;0.10;0.10;;;8.20;99.90;;;;;;5013500;28;20084;-84
2022/11/17 09:54:59;;;;;;;0.10;0.10;;;8.10;99.90;;;;;;5010858;28;20073;-84
2022/11/17 09:57:34;;;;;;;0.10;0.10;;;8.50;99.90;;;;;;5028983;28;20107;-86
2022/11/17 10:00:12;;;;;;;0.10;0.10;;;8.10;99.90;;;;;;5032126;28;20128;-84
2022/11/17 10:02:39;;;;;;;0.10;0.10;;;8.10;99.90;;;;;;4998046;28;20513;-85
2022/11/17 10:05:13;;;;;;;0.10;0.10;;;8.10;99.90;;;;;;5014101;28;20105;-85
2022/11/17 10:07:46;;;;;;;0.10;0.10;;;8.10;99.90;;;;;;5016117;28;20500;-84
2022/11/17 10:10:20;;;;;;;0.10;0.10;;;8.20;99.90;;;;;;5039137;28;20060;-85
2022/11/17 10:12:51;;;;;;;0.10;0.10;;;8.20;99.90;;;;;;5013817;28;20132;-85
2022/11/17 10:15:24;;;;;;;0.08;0.08;;;8.00;99.90;;;;;;5030014;28;20053;-86
2022/11/17 10:17:51;;;;;;;0.10;0.10;;;;;;;;;;5015418;28;20041;-83
2022/11/17 10:20:20;;;;;;;0.10;0.10;;;8.00;99.90;;;;;;5031947;28;20122;-84
2022/11/17 10:22:48;;;;;;;0.10;0.10;;;8.00;99.90;;;;;;5004222;28;20080;-85
2022/11/17 10:25:35;;;;;;;0.10;0.10;;;8.00;99.90;;;;;;5027180;28;20050;-86
2022/11/17 10:28:04;;;;;;;0.08;0.08;;;8.00;99.90;;;;;;5021713;28;20051;-85
2022/11/17 10:30:31;;;;;;;0.10;0.10;;;;;;;;;;5032759;28;20049;-85
2022/11/17 10:33:00;;;;;;;0.10;0.10;;;8.10;99.90;;;;;;5013883;28;20097;-86
2022/11/17 10:35:30;;;;;;;0.10;0.10;;;8.20;99.90;;;;;;5030118;28;20492;-85
2022/11/17 10:37:59;;;;;;;0.10;0.10;;;8.10;99.90;;;;;;5028224;28;20045;-85
2022/11/17 10:40:28;;;;;;;0.10;0.10;;;8.10;99.90;;;;;;5012742;28;20081;-85
2022/11/17 10:42:58;;;;;;;0.10;0.10;;;8.20;99.90;;;;;;5028310;28;20506;-85
2022/11/17 10:45:26;;;;;;;0.05;0.05;;;;;;;;;;5010129;28;20041;-85
2022/11/17 10:48:08;;;;;;;0.10;0.10;;;8.10;99.90;;;;;;5031409;28;20088;-86
2022/11/17 10:50:36;;;;;;;0.10;0.10;;;8.10;99.90;;;;;;5014702;28;20048;-86
2022/11/17 10:53:22;;;;;;;0.10;0.10;;;8.20;99.90;;;;;;5031293;28;20041;-85
2022/11/17 10:55:55;;;;;;;0.10;0.10;;;8.20;99.90;;;;;;4991460;28;20040;-86
2022/11/17 10:58:25;;;;;;;0.10;0.10;;;8.20;99.90;;;;;;4997828;28;20121;-85
2022/11/17 11:00:54;;;;;;;0.10;0.10;;;8.20;99.90;;;;;;5032181;28;20081;-84
2022/11/17 11:03:23;;;;;;;0.00;0.00;;;8.30;99.90;;;;;;5014837;28;20411;-86
2022/11/17 11:06:20;;;;;;;0.10;0.10;;;8.30;99.90;;;;;;5013209;28;20516;-86
2022/11/17 11:08:52;;;;;;;0.10;0.10;;;8.10;99.90;;;;;;5013924;28;20053;-86
2022/11/17 11:11:31;;;;;;;0.10;0.10;;;8.10;99.90;;;;;;5028678;28;20049;-85
2022/11/17 11:14:11;;;;;;;0.10;0.10;;;8.10;99.90;;;;;;5026277;28;20041;-85
2022/11/17 11:16:38;;;;;;;0.10;0.10;;;;;;;;;;5015191;28;20454;-86
2022/11/17 11:19:14;;;;;;;0.10;0.10;;;8.10;99.90;;;;;;5028951;28;20045;-86
2022/11/17 11:22:01;;;;;;;0.10;0.10;;;8.00;99.90;;;;;;5011521;28;20103;-84
2022/11/17 11:24:37;;;;;;;0.10;0.10;;;8.10;99.90;;;;;;5013999;28;20151;-86
2022/11/17 11:27:21;;;;;;;0.10;0.10;;;8.30;99.90;;;;;;5011703;28;20166;-85
2022/11/17 11:29:59;;;;;;;0.10;0.10;;;8.20;99.90;;;;;;5017129;28;20049;-85
2022/11/17 11:32:38;;;;;;;0.10;0.10;;;8.40;99.90;;;;;;5029271;28;20053;-85
2022/11/17 11:35:38;;;;;;;0.10;0.10;;;8.40;99.90;;;;;;5026774;28;20045;-86
2022/11/17 11:38:20;;;;;;;0.10;0.10;;;8.40;99.90;;;;;;5000207;28;20060;-86
2022/11/17 11:41:00;;;;;;;0.10;0.10;;;8.90;99.90;;;;;;5016346;28;20048;-86
2022/11/17 11:43:37;;;;;;;0.10;0.10;;;8.30;99.90;;;;;;5014709;28;20042;-87
2022/11/17 11:46:13;;;;;;;0.10;0.10;;;8.40;99.90;;;;;;5011522;28;20479;-85
2022/11/17 11:48:40;;;;;;;0.10;0.10;;;;;;;;;;5015295;28;20108;-84
2022/11/17 11:51:13;;;;;;;0.10;0.10;;;8.30;99.90;;;;;;5013789;28;20073;-86
2022/11/17 11:53:48;;;;;;;0.10;0.10;;;8.30;99.90;;;;;;5014500;28;20133;-85
2022/11/17 11:56:19;;;;;;;0.10;0.10;;;8.20;99.90;;;;;;5029052;28;20080;-85
2022/11/17 11:58:52;;;;;;;0.10;0.10;;;8.20;99.90;;;;;;4996365;28;20077;-84
2022/11/17 12:01:21;;;;;;;0.10;0.10;;;8.20;99.90;;;;;;5015476;28;20076;-84
2022/11/17 12:03:55;;;;;;;0.10;0.10;;;8.20;99.90;;;;;;5011664;28;20160;-85
2022/11/17 12:06:40;;;;;;;0.10;0.10;;;8.20;99.90;;;;;;5024124;28;20088;-85
2022/11/17 12:09:51;;;;;;;0.10;0.10;;;8.10;99.90;;;;;;5008155;28;20049;-86
2022/11/17 12:12:23;;;;;;;0.10;0.10;;;8.10;99.90;;;;;;4984109;28;20041;-85
2022/11/17 12:15:09;;;;;;;0.10;0.10;;;8.10;99.90;;;;;;5008194;28;20041;-85
2022/11/17 12:17:37;;;;;;;0.10;0.10;;;;;;;;;;5026048;28;20041;-86
2022/11/17 12:20:24;;;;;;;0.10;0.10;;;8.10;99.90;;;;;;5020070;28;20130;-86
2022/11/17 12:23:09;;;;;;;0.10;0.10;;;8.20;99.90;;;;;;5014346;28;20077;-85
2022/11/17 12:25:44;;;;;;;0.10;0.10;;;8.20;99.90;;;;;;5012427;28;20046;-86
2022/11/17 12:28:28;;;;;;;0.10;0.10;;;8.20;99.90;;;;;;5012594;28;20046;-86
2022/11/17 12:30:57;;;;;;;0.10;0.10;;;8.30;99.90;;;;;;5032546;28;20034;-85
2022/11/17 12:34:09;;;;;;;0.10;0.10;;;8.30;99.90;;;;;;5028658;28;20044;-86
2022/11/17 12:36:37;;;;;;;0.10;0.10;;;8.30;99.90;;;;;;5010223;28;20463;-85
2022/11/17 12:39:07;;;;;;;0.10;0.10;;;8.30;99.90;;;;;;5013609;28;20049;-85
2022/11/17 12:42:04;;;;;;;0.10;0.10;;;8.30;99.90;;;;;;5010340;28;20044;-87
2022/11/17 12:44:56;;;;;;;0.10;0.10;;;8.20;99.90;;;;;;5008677;28;20114;-86
2022/11/17 12:47:26;;;;;;;0.10;0.10;;;8.30;99.90;;;;;;4997166;28;20487;-86
2022/11/17 12:50:04;;;;;;;0.10;0.10;;;8.30;99.90;;;;;;5023819;28;20037;-85
2022/11/17 12:52:49;;;;;;;0.10;0.10;;;8.40;99.90;;;;;;5012950;28;20141;-87
2022/11/17 12:55:20;;;;;;;0.10;0.10;;;8.40;99.90;;;;;;5009273;28;20045;-87
2022/11/17 12:57:55;;;;;;;0.10;0.10;;;8.40;99.90;;;;;;5031051;28;20049;-86
2022/11/17 13:00:24;;;;;;;0.10;0.10;;;8.40;99.90;;;;;;5003314;28;20420;-86
2022/11/17 13:03:03;;;;;;;0.10;0.10;;;8.40;99.90;;;;;;5012284;28;20120;-85
2022/11/17 13:05:30;;;;;;;0.10;0.10;;;;;;;;;;5026492;28;20474;-86
2022/11/17 13:08:19;;;;;;;0.10;0.10;;;8.50;99.90;;;;;;5006133;28;20037;-85
2022/11/17 13:10:46;;;;;;;0.10;0.10;;;8.50;99.90;;;;;;5017267;28;20046;-86
2022/11/17 13:13:18;;;;;;;0.10;0.10;;;8.50;99.90;;;;;;5018528;28;20353;-87
2022/11/17 13:15:49;;;;;;;0.10;0.10;;;8.60;99.90;;;;;;5017029;28;20045;-85
2022/11/17 13:18:28;;;;;;;0.10;0.10;;;8.50;99.90;;;;;;5025738;28;20120;-85
2022/11/17 13:20:55;;;;;;;0.10;0.10;;;;;;;;;;5029743;28;20484;-84
2022/11/17 13:23:24;;;;;;;0.10;0.10;;;8.60;99.90;;;;;;5029204;28;20488;-84
2022/11/17 13:26:07;;;;;;;0.10;0.10;;;8.70;99.90;;;;;;5014900;28;20565;-86
2022/11/17 13:28:36;;;;;;;0.10;0.10;;;8.70;99.90;;;;;;5030877;28;20041;-85
2022/11/17 13:31:03;;;;;;;0.10;0.10;;;;;;;;;;5026024;28;20037;-87
2022/11/17 13:33:32;;;;;;;0.10;0.10;;;8.80;99.90;;;;;;5026083;28;23390;-85
2022/11/17 13:36:13;;;;;;;0.10;0.10;;;8.90;99.90;;;;;;5030652;28;20076;-86
2022/11/17 13:38:47;;;;;;;0.10;0.10;;;8.90;99.90;;;;;;5004609;28;20045;-87
2022/11/17 13:41:15;;;;;;;0.10;0.10;;;8.90;99.90;;;;;;5014418;28;20071;-86
2022/11/17 13:43:45;;;;;;;0.10;0.10;;;8.90;99.90;;;;;;5028012;28;20119;-84
2022/11/17 13:46:12;;;;;;;0.10;0.10;;;8.90;99.90;;;;;;5012320;28;20122;-87
2022/11/17 13:48:41;;;;;;;0.10;0.10;;;10.70;99.90;;;;;;5019921;28;20089;-87
2022/11/17 13:51:23;;;;;;;0.00;0.00;;;8.90;99.90;;;;;;5011083;28;20076;-86
2022/11/17 13:53:52;;;;;;;0.00;0.00;;;8.90;99.90;;;;;;5011422;28;20088;-85
2022/11/17 13:56:28;;;;;;;0.10;0.10;;;8.90;99.90;;;;;;5009663;28;20084;-87
2022/11/17 13:58:57;;;;;;;0.05;0.05;;;8.80;99.90;;;;;;5028453;28;20069;-87
2022/11/17 14:01:32;;;;;;;0.10;0.10;;;9.70;99.90;;;;;;5028432;28;20076;-86
2022/11/17 14:04:15;;;;;;;0.10;0.10;;;8.90;99.90;;;;;;5028057;28;20053;-87
2022/11/17 14:06:55;;;;;;;0.10;0.10;;;8.90;99.90;;;;;;5029952;28;20060;-86
2022/11/17 14:09:23;;;;;;;0.10;0.10;;;8.80;99.90;;;;;;5016522;28;20057;-86